sensor_id;sensor_type;location;lat;lon;timestamp;P1;durP1;ratioP1;P2;durP2;ratioP2
57309;SDS011;43153;50.984;18.204;2023-08-30T00:01:04;28.30;;;13.90;;
57309;SDS011;43153;50.984;18.204;2023-08-30T00:03:30;26.40;;;13.10;;
57309;SDS011;43153;50.984;18.204;2023-08-30T00:06:01;26.70;;;12.90;;
57309;SDS011;43153;50.984;18.204;2023-08-30T00:08:33;24.50;;;12.80;;
57309;SDS011;43153;50.984;18.204;2023-08-30T00:10:59;28.30;;;13.80;;
57309;SDS011;43153;50.984;18.204;2023-08-30T00:13:29;23.90;;;13.20;;
57309;SDS011;43153;50.984;18.204;2023-08-30T00:15:58;24.20;;;12.80;;
57309;SDS011;43153;50.984;18.204;2023-08-30T00:18:29;24.90;;;13.30;;
57309;SDS011;43153;50.984;18.204;2023-08-30T00:20:56;25.20;;;13.60;;
57309;SDS011;43153;50.984;18.204;2023-08-30T00:23:22;25.30;;;14.20;;
57309;SDS011;43153;50.984;18.204;2023-08-30T00:25:52;25.10;;;13.70;;
57309;SDS011;43153;50.984;18.204;2023-08-30T00:28:18;23.80;;;13.70;;
57309;SDS011;43153;50.984;18.204;2023-08-30T00:30:44;24.40;;;13.00;;
57309;SDS011;43153;50.984;18.204;2023-08-30T00:33:33;26.90;;;14.00;;
57309;SDS011;43153;50.984;18.204;2023-08-30T00:35:59;25.40;;;12.90;;
57309;SDS011;43153;50.984;18.204;2023-08-30T00:38:26;26.10;;;13.20;;
57309;SDS011;43153;50.984;18.204;2023-08-30T00:40:55;24.60;;;13.10;;
57309;SDS011;43153;50.984;18.204;2023-08-30T00:43:24;31.20;;;13.70;;
57309;SDS011;43153;50.984;18.204;2023-08-30T00:45:50;29.60;;;14.20;;
57309;SDS011;43153;50.984;18.204;2023-08-30T00:48:17;28.00;;;13.20;;
57309;SDS011;43153;50.984;18.204;2023-08-30T00:50:47;24.00;;;13.00;;
57309;SDS011;43153;50.984;18.204;2023-08-30T00:53:19;22.10;;;13.00;;
57309;SDS011;43153;50.984;18.204;2023-08-30T00:55:48;26.70;;;12.90;;
57309;SDS011;43153;50.984;18.204;2023-08-30T00:58:14;27.30;;;12.80;;
57309;SDS011;43153;50.984;18.204;2023-08-30T01:00:40;25.30;;;12.70;;
57309;SDS011;43153;50.984;18.204;2023-08-30T01:03:12;24.90;;;12.90;;
57309;SDS011;43153;50.984;18.204;2023-08-30T01:05:38;25.60;;;12.20;;
57309;SDS011;43153;50.984;18.204;2023-08-30T01:08:08;29.70;;;12.90;;
57309;SDS011;43153;50.984;18.204;2023-08-30T01:10:53;28.50;;;13.70;;
57309;SDS011;43153;50.984;18.204;2023-08-30T01:13:33;27.20;;;13.40;;
57309;SDS011;43153;50.984;18.204;2023-08-30T01:16:03;27.10;;;13.40;;
57309;SDS011;43153;50.984;18.204;2023-08-30T01:18:34;24.10;;;13.30;;
57309;SDS011;43153;50.984;18.204;2023-08-30T01:21:02;27.00;;;12.60;;
57309;SDS011;43153;50.984;18.204;2023-08-30T01:26:20;29.50;;;13.80;;
57309;SDS011;43153;50.984;18.204;2023-08-30T01:28:49;26.50;;;14.20;;
57309;SDS011;43153;50.984;18.204;2023-08-30T01:31:17;26.00;;;13.00;;
57309;SDS011;43153;50.984;18.204;2023-08-30T01:33:45;25.10;;;12.70;;
57309;SDS011;43153;50.984;18.204;2023-08-30T01:36:11;26.90;;;13.40;;
57309;SDS011;43153;50.984;18.204;2023-08-30T01:38:38;22.40;;;11.50;;
57309;SDS011;43153;50.984;18.204;2023-08-30T01:41:05;24.20;;;12.60;;
57309;SDS011;43153;50.984;18.204;2023-08-30T01:43:32;23.60;;;12.00;;
57309;SDS011;43153;50.984;18.204;2023-08-30T01:45:59;20.60;;;11.60;;
57309;SDS011;43153;50.984;18.204;2023-08-30T01:48:27;23.30;;;11.90;;
57309;SDS011;43153;50.984;18.204;2023-08-30T01:50:53;21.90;;;11.20;;
57309;SDS011;43153;50.984;18.204;2023-08-30T01:53:24;24.50;;;12.10;;
57309;SDS011;43153;50.984;18.204;2023-08-30T01:55:53;23.30;;;10.80;;
57309;SDS011;43153;50.984;18.204;2023-08-30T01:58:20;23.60;;;12.00;;
57309;SDS011;43153;50.984;18.204;2023-08-30T02:00:48;23.40;;;11.20;;
57309;SDS011;43153;50.984;18.204;2023-08-30T02:03:14;23.40;;;11.90;;
57309;SDS011;43153;50.984;18.204;2023-08-30T02:08:41;21.30;;;11.00;;
57309;SDS011;43153;50.984;18.204;2023-08-30T02:11:31;21.40;;;11.10;;
57309;SDS011;43153;50.984;18.204;2023-08-30T02:13:58;22.60;;;11.20;;
57309;SDS011;43153;50.984;18.204;2023-08-30T02:16:27;21.20;;;11.30;;
57309;SDS011;43153;50.984;18.204;2023-08-30T02:18:57;22.10;;;10.10;;
57309;SDS011;43153;50.984;18.204;2023-08-30T02:21:23;23.00;;;11.10;;
57309;SDS011;43153;50.984;18.204;2023-08-30T02:23:53;21.70;;;10.20;;
57309;SDS011;43153;50.984;18.204;2023-08-30T02:26:22;22.60;;;10.40;;
57309;SDS011;43153;50.984;18.204;2023-08-30T02:28:49;23.80;;;10.30;;
57309;SDS011;43153;50.984;18.204;2023-08-30T02:31:17;22.00;;;10.90;;
57309;SDS011;43153;50.984;18.204;2023-08-30T02:33:46;19.00;;;8.90;;
57309;SDS011;43153;50.984;18.204;2023-08-30T02:36:19;19.70;;;9.80;;
57309;SDS011;43153;50.984;18.204;2023-08-30T02:38:45;21.40;;;10.90;;
57309;SDS011;43153;50.984;18.204;2023-08-30T02:41:12;22.10;;;10.10;;
57309;SDS011;43153;50.984;18.204;2023-08-30T02:43:38;22.00;;;10.40;;
57309;SDS011;43153;50.984;18.204;2023-08-30T02:46:09;22.10;;;10.10;;
57309;SDS011;43153;50.984;18.204;2023-08-30T02:48:37;18.10;;;9.00;;
57309;SDS011;43153;50.984;18.204;2023-08-30T02:51:03;25.80;;;11.30;;
57309;SDS011;43153;50.984;18.204;2023-08-30T02:53:29;24.60;;;11.20;;
57309;SDS011;43153;50.984;18.204;2023-08-30T02:55:56;22.50;;;10.30;;
57309;SDS011;43153;50.984;18.204;2023-08-30T02:58:23;20.80;;;10.00;;
57309;SDS011;43153;50.984;18.204;2023-08-30T03:00:50;23.40;;;10.70;;
57309;SDS011;43153;50.984;18.204;2023-08-30T03:03:16;24.50;;;10.20;;
57309;SDS011;43153;50.984;18.204;2023-08-30T03:05:42;23.40;;;11.10;;
57309;SDS011;43153;50.984;18.204;2023-08-30T03:08:08;26.80;;;11.80;;
57309;SDS011;43153;50.984;18.204;2023-08-30T03:10:34;24.60;;;11.40;;
57309;SDS011;43153;50.984;18.204;2023-08-30T03:13:01;25.90;;;11.80;;
57309;SDS011;43153;50.984;18.204;2023-08-30T03:15:27;24.00;;;10.90;;
57309;SDS011;43153;50.984;18.204;2023-08-30T03:17:59;26.90;;;11.70;;
57309;SDS011;43153;50.984;18.204;2023-08-30T03:20:27;22.70;;;11.30;;
57309;SDS011;43153;50.984;18.204;2023-08-30T03:22:55;25.80;;;10.80;;
57309;SDS011;43153;50.984;18.204;2023-08-30T03:25:24;23.30;;;11.20;;
57309;SDS011;43153;50.984;18.204;2023-08-30T03:27:54;20.10;;;10.10;;
57309;SDS011;43153;50.984;18.204;2023-08-30T03:30:26;20.40;;;9.70;;
57309;SDS011;43153;50.984;18.204;2023-08-30T03:32:52;24.60;;;10.60;;
57309;SDS011;43153;50.984;18.204;2023-08-30T03:35:19;22.00;;;10.00;;
57309;SDS011;43153;50.984;18.204;2023-08-30T03:37:47;21.60;;;10.30;;
57309;SDS011;43153;50.984;18.204;2023-08-30T03:40:16;26.80;;;9.70;;
57309;SDS011;43153;50.984;18.204;2023-08-30T03:42:44;22.60;;;9.40;;
57309;SDS011;43153;50.984;18.204;2023-08-30T03:45:13;25.10;;;9.40;;
57309;SDS011;43153;50.984;18.204;2023-08-30T03:47:43;22.20;;;9.90;;
57309;SDS011;43153;50.984;18.204;2023-08-30T03:50:11;19.20;;;8.80;;
57309;SDS011;43153;50.984;18.204;2023-08-30T03:52:37;20.90;;;9.90;;
57309;SDS011;43153;50.984;18.204;2023-08-30T03:55:04;20.70;;;9.40;;
57309;SDS011;43153;50.984;18.204;2023-08-30T03:57:32;16.80;;;8.50;;
57309;SDS011;43153;50.984;18.204;2023-08-30T03:59:58;17.80;;;8.40;;
57309;SDS011;43153;50.984;18.204;2023-08-30T04:02:27;17.20;;;8.70;;
57309;SDS011;43153;50.984;18.204;2023-08-30T04:04:54;18.00;;;8.20;;
57309;SDS011;43153;50.984;18.204;2023-08-30T04:07:20;19.00;;;8.50;;
57309;SDS011;43153;50.984;18.204;2023-08-30T04:09:46;20.30;;;8.20;;
57309;SDS011;43153;50.984;18.204;2023-08-30T04:12:16;22.60;;;7.70;;
57309;SDS011;43153;50.984;18.204;2023-08-30T04:14:48;21.00;;;8.70;;
57309;SDS011;43153;50.984;18.204;2023-08-30T04:17:16;17.70;;;7.50;;
57309;SDS011;43153;50.984;18.204;2023-08-30T04:19:42;18.90;;;8.70;;
57309;SDS011;43153;50.984;18.204;2023-08-30T04:22:08;16.40;;;7.60;;
57309;SDS011;43153;50.984;18.204;2023-08-30T04:24:34;18.00;;;7.80;;
57309;SDS011;43153;50.984;18.204;2023-08-30T04:27:00;15.80;;;7.60;;
57309;SDS011;43153;50.984;18.204;2023-08-30T04:29:26;15.40;;;8.00;;
57309;SDS011;43153;50.984;18.204;2023-08-30T04:31:55;17.90;;;8.10;;
57309;SDS011;43153;50.984;18.204;2023-08-30T04:34:24;18.00;;;8.90;;
57309;SDS011;43153;50.984;18.204;2023-08-30T04:36:52;19.00;;;8.60;;
57309;SDS011;43153;50.984;18.204;2023-08-30T04:39:18;17.60;;;8.70;;
57309;SDS011;43153;50.984;18.204;2023-08-30T04:41:49;19.00;;;8.30;;
57309;SDS011;43153;50.984;18.204;2023-08-30T04:44:18;18.40;;;7.50;;
57309;SDS011;43153;50.984;18.204;2023-08-30T04:46:44;14.00;;;6.00;;
57309;SDS011;43153;50.984;18.204;2023-08-30T04:49:13;13.00;;;6.40;;
57309;SDS011;43153;50.984;18.204;2023-08-30T04:51:45;10.80;;;4.10;;
57309;SDS011;43153;50.984;18.204;2023-08-30T04:54:14;9.20;;;4.60;;
57309;SDS011;43153;50.984;18.204;2023-08-30T04:56:41;10.30;;;3.70;;
57309;SDS011;43153;50.984;18.204;2023-08-30T04:59:08;6.00;;;2.20;;
57309;SDS011;43153;50.984;18.204;2023-08-30T05:01:35;6.90;;;2.30;;
57309;SDS011;43153;50.984;18.204;2023-08-30T05:04:03;6.40;;;2.30;;
57309;SDS011;43153;50.984;18.204;2023-08-30T05:06:33;6.40;;;2.40;;
57309;SDS011;43153;50.984;18.204;2023-08-30T05:08:59;7.10;;;2.40;;
57309;SDS011;43153;50.984;18.204;2023-08-30T05:11:33;5.10;;;1.80;;
57309;SDS011;43153;50.984;18.204;2023-08-30T05:14:03;7.50;;;2.20;;
57309;SDS011;43153;50.984;18.204;2023-08-30T05:16:31;5.60;;;1.80;;
57309;SDS011;43153;50.984;18.204;2023-08-30T05:19:02;5.80;;;1.90;;
57309;SDS011;43153;50.984;18.204;2023-08-30T05:21:43;9.10;;;2.80;;
57309;SDS011;43153;50.984;18.204;2023-08-30T05:24:13;6.60;;;2.70;;
57309;SDS011;43153;50.984;18.204;2023-08-30T05:26:41;7.80;;;2.90;;
57309;SDS011;43153;50.984;18.204;2023-08-30T05:29:07;12.40;;;3.40;;
57309;SDS011;43153;50.984;18.204;2023-08-30T05:31:51;9.70;;;2.90;;
57309;SDS011;43153;50.984;18.204;2023-08-30T05:34:19;9.40;;;4.40;;
57309;SDS011;43153;50.984;18.204;2023-08-30T05:36:54;10.10;;;4.30;;
57309;SDS011;43153;50.984;18.204;2023-08-30T05:39:19;8.30;;;3.90;;
57309;SDS011;43153;50.984;18.204;2023-08-30T05:41:46;12.50;;;5.00;;
57309;SDS011;43153;50.984;18.204;2023-08-30T05:44:12;8.10;;;3.00;;
57309;SDS011;43153;50.984;18.204;2023-08-30T05:46:38;10.30;;;3.60;;
57309;SDS011;43153;50.984;18.204;2023-08-30T05:49:08;12.30;;;3.50;;
57309;SDS011;43153;50.984;18.204;2023-08-30T05:51:34;8.00;;;3.50;;
57309;SDS011;43153;50.984;18.204;2023-08-30T05:54:00;7.50;;;3.10;;
57309;SDS011;43153;50.984;18.204;2023-08-30T05:56:29;7.10;;;3.20;;
57309;SDS011;43153;50.984;18.204;2023-08-30T05:58:56;7.30;;;3.40;;
57309;SDS011;43153;50.984;18.204;2023-08-30T06:01:25;7.90;;;3.20;;
57309;SDS011;43153;50.984;18.204;2023-08-30T06:03:53;7.80;;;3.10;;
57309;SDS011;43153;50.984;18.204;2023-08-30T06:06:21;6.30;;;2.70;;
57309;SDS011;43153;50.984;18.204;2023-08-30T06:08:47;6.70;;;2.70;;
57309;SDS011;43153;50.984;18.204;2023-08-30T06:11:18;6.10;;;2.70;;
57309;SDS011;43153;50.984;18.204;2023-08-30T06:13:45;6.20;;;2.80;;
57309;SDS011;43153;50.984;18.204;2023-08-30T06:16:14;7.20;;;2.80;;
57309;SDS011;43153;50.984;18.204;2023-08-30T06:18:43;6.50;;;2.70;;
57309;SDS011;43153;50.984;18.204;2023-08-30T06:21:12;5.90;;;2.80;;
57309;SDS011;43153;50.984;18.204;2023-08-30T06:23:40;7.50;;;2.50;;
57309;SDS011;43153;50.984;18.204;2023-08-30T06:26:08;5.00;;;2.20;;
57309;SDS011;43153;50.984;18.204;2023-08-30T06:28:36;6.10;;;3.00;;
57309;SDS011;43153;50.984;18.204;2023-08-30T06:31:02;8.00;;;3.60;;
57309;SDS011;43153;50.984;18.204;2023-08-30T06:33:28;6.10;;;3.30;;
57309;SDS011;43153;50.984;18.204;2023-08-30T06:35:53;8.30;;;3.00;;
57309;SDS011;43153;50.984;18.204;2023-08-30T06:38:21;5.90;;;2.60;;
57309;SDS011;43153;50.984;18.204;2023-08-30T06:40:52;5.20;;;2.60;;
57309;SDS011;43153;50.984;18.204;2023-08-30T06:43:22;6.00;;;2.40;;
57309;SDS011;43153;50.984;18.204;2023-08-30T06:45:48;5.80;;;2.90;;
57309;SDS011;43153;50.984;18.204;2023-08-30T06:48:22;7.70;;;3.30;;
57309;SDS011;43153;50.984;18.204;2023-08-30T06:50:49;6.70;;;3.30;;
57309;SDS011;43153;50.984;18.204;2023-08-30T06:53:15;7.70;;;3.20;;
57309;SDS011;43153;50.984;18.204;2023-08-30T06:55:42;6.00;;;3.20;;
57309;SDS011;43153;50.984;18.204;2023-08-30T06:58:08;6.20;;;2.90;;
57309;SDS011;43153;50.984;18.204;2023-08-30T07:00:37;6.80;;;3.10;;
57309;SDS011;43153;50.984;18.204;2023-08-30T07:03:03;6.90;;;2.80;;
57309;SDS011;43153;50.984;18.204;2023-08-30T07:05:30;8.40;;;3.30;;
57309;SDS011;43153;50.984;18.204;2023-08-30T07:07:57;6.50;;;2.00;;
57309;SDS011;43153;50.984;18.204;2023-08-30T07:10:23;7.50;;;3.10;;
57309;SDS011;43153;50.984;18.204;2023-08-30T07:12:49;5.60;;;2.60;;
57309;SDS011;43153;50.984;18.204;2023-08-30T07:15:15;7.30;;;3.40;;
57309;SDS011;43153;50.984;18.204;2023-08-30T07:17:43;8.00;;;3.70;;
57309;SDS011;43153;50.984;18.204;2023-08-30T07:20:09;8.40;;;3.90;;
57309;SDS011;43153;50.984;18.204;2023-08-30T07:22:37;9.90;;;4.10;;
57309;SDS011;43153;50.984;18.204;2023-08-30T07:25:04;8.00;;;3.90;;
57309;SDS011;43153;50.984;18.204;2023-08-30T07:27:35;9.10;;;3.80;;
57309;SDS011;43153;50.984;18.204;2023-08-30T07:30:03;11.40;;;4.40;;
57309;SDS011;43153;50.984;18.204;2023-08-30T07:32:30;9.20;;;4.80;;
57309;SDS011;43153;50.984;18.204;2023-08-30T07:34:56;8.50;;;3.70;;
57309;SDS011;43153;50.984;18.204;2023-08-30T07:37:25;8.90;;;4.50;;
57309;SDS011;43153;50.984;18.204;2023-08-30T07:39:51;10.30;;;4.70;;
57309;SDS011;43153;50.984;18.204;2023-08-30T07:42:17;9.80;;;4.10;;
57309;SDS011;43153;50.984;18.204;2023-08-30T07:44:43;8.90;;;4.30;;
57309;SDS011;43153;50.984;18.204;2023-08-30T07:47:08;8.50;;;4.20;;
57309;SDS011;43153;50.984;18.204;2023-08-30T07:49:34;10.10;;;4.30;;
57309;SDS011;43153;50.984;18.204;2023-08-30T07:52:00;8.30;;;4.20;;
57309;SDS011;43153;50.984;18.204;2023-08-30T07:54:26;11.50;;;4.00;;
57309;SDS011;43153;50.984;18.204;2023-08-30T07:56:53;7.40;;;3.70;;
57309;SDS011;43153;50.984;18.204;2023-08-30T07:59:20;9.10;;;4.20;;
57309;SDS011;43153;50.984;18.204;2023-08-30T08:01:48;7.70;;;3.30;;
57309;SDS011;43153;50.984;18.204;2023-08-30T08:04:17;8.40;;;3.60;;
57309;SDS011;43153;50.984;18.204;2023-08-30T08:06:43;6.20;;;3.10;;
57309;SDS011;43153;50.984;18.204;2023-08-30T08:09:10;9.30;;;3.20;;
57309;SDS011;43153;50.984;18.204;2023-08-30T08:11:37;7.60;;;2.90;;
57309;SDS011;43153;50.984;18.204;2023-08-30T08:14:10;7.00;;;3.30;;
57309;SDS011;43153;50.984;18.204;2023-08-30T08:16:36;6.60;;;3.30;;
57309;SDS011;43153;50.984;18.204;2023-08-30T08:19:03;7.90;;;3.30;;
57309;SDS011;43153;50.984;18.204;2023-08-30T08:21:33;9.00;;;3.30;;
57309;SDS011;43153;50.984;18.204;2023-08-30T08:24:00;7.50;;;3.10;;
57309;SDS011;43153;50.984;18.204;2023-08-30T08:26:29;9.70;;;3.80;;
57309;SDS011;43153;50.984;18.204;2023-08-30T08:28:57;7.00;;;3.30;;
57309;SDS011;43153;50.984;18.204;2023-08-30T08:31:25;6.30;;;3.10;;
57309;SDS011;43153;50.984;18.204;2023-08-30T08:36:56;8.00;;;3.60;;
57309;SDS011;43153;50.984;18.204;2023-08-30T08:39:23;6.80;;;3.10;;
57309;SDS011;43153;50.984;18.204;2023-08-30T08:41:49;5.90;;;2.90;;
57309;SDS011;43153;50.984;18.204;2023-08-30T08:44:18;6.20;;;2.80;;
57309;SDS011;43153;50.984;18.204;2023-08-30T08:46:45;5.30;;;2.80;;
57309;SDS011;43153;50.984;18.204;2023-08-30T08:49:14;5.60;;;2.70;;
57309;SDS011;43153;50.984;18.204;2023-08-30T08:51:50;7.10;;;3.00;;
57309;SDS011;43153;50.984;18.204;2023-08-30T08:54:16;6.40;;;2.80;;
57309;SDS011;43153;50.984;18.204;2023-08-30T08:56:42;9.00;;;2.80;;
57309;SDS011;43153;50.984;18.204;2023-08-30T08:59:09;5.00;;;2.30;;
57309;SDS011;43153;50.984;18.204;2023-08-30T09:01:38;6.00;;;3.00;;
57309;SDS011;43153;50.984;18.204;2023-08-30T09:04:05;5.50;;;2.80;;
57309;SDS011;43153;50.984;18.204;2023-08-30T09:06:33;5.80;;;2.90;;
57309;SDS011;43153;50.984;18.204;2023-08-30T09:09:01;5.40;;;2.90;;
57309;SDS011;43153;50.984;18.204;2023-08-30T09:11:29;5.80;;;2.80;;
57309;SDS011;43153;50.984;18.204;2023-08-30T09:13:59;6.20;;;2.90;;
57309;SDS011;43153;50.984;18.204;2023-08-30T09:16:24;5.40;;;2.60;;
57309;SDS011;43153;50.984;18.204;2023-08-30T09:19:00;5.30;;;2.50;;
57309;SDS011;43153;50.984;18.204;2023-08-30T09:21:34;6.90;;;3.50;;
57309;SDS011;43153;50.984;18.204;2023-08-30T09:26:36;7.10;;;3.50;;
57309;SDS011;43153;50.984;18.204;2023-08-30T09:29:05;7.90;;;4.10;;
57309;SDS011;43153;50.984;18.204;2023-08-30T09:34:02;8.20;;;3.80;;
57309;SDS011;43153;50.984;18.204;2023-08-30T09:36:38;10.30;;;5.00;;
57309;SDS011;43153;50.984;18.204;2023-08-30T09:39:07;7.40;;;3.40;;
57309;SDS011;43153;50.984;18.204;2023-08-30T09:41:53;7.90;;;3.90;;
57309;SDS011;43153;50.984;18.204;2023-08-30T09:44:22;9.40;;;4.20;;
57309;SDS011;43153;50.984;18.204;2023-08-30T10:25:54;7.80;;;3.40;;
57309;SDS011;43153;50.984;18.204;2023-08-30T10:28:21;7.50;;;3.10;;
57309;SDS011;43153;50.984;18.204;2023-08-30T10:30:52;5.50;;;2.30;;
57309;SDS011;43153;50.984;18.204;2023-08-30T10:33:19;5.40;;;2.70;;
57309;SDS011;43153;50.984;18.204;2023-08-30T10:36:02;7.40;;;2.60;;
57309;SDS011;43153;50.984;18.204;2023-08-30T10:38:36;4.70;;;2.60;;
57309;SDS011;43153;50.984;18.204;2023-08-30T10:41:09;6.50;;;2.60;;
57309;SDS011;43153;50.984;18.204;2023-08-30T10:43:48;5.50;;;2.40;;
57309;SDS011;43153;50.984;18.204;2023-08-30T10:46:32;4.80;;;2.50;;
57309;SDS011;43153;50.984;18.204;2023-08-30T10:49:13;6.00;;;3.10;;
57309;SDS011;43153;50.984;18.204;2023-08-30T10:51:56;4.90;;;2.40;;
57309;SDS011;43153;50.984;18.204;2023-08-30T10:54:24;4.80;;;2.70;;
57309;SDS011;43153;50.984;18.204;2023-08-30T10:56:56;6.30;;;3.00;;
57309;SDS011;43153;50.984;18.204;2023-08-30T10:59:28;5.50;;;2.80;;
57309;SDS011;43153;50.984;18.204;2023-08-30T11:02:03;3.30;;;2.10;;
57309;SDS011;43153;50.984;18.204;2023-08-30T11:04:31;4.50;;;2.00;;
57309;SDS011;43153;50.984;18.204;2023-08-30T11:07:00;5.70;;;2.60;;
57309;SDS011;43153;50.984;18.204;2023-08-30T11:09:33;4.60;;;2.50;;
57309;SDS011;43153;50.984;18.204;2023-08-30T11:12:03;5.20;;;2.40;;
57309;SDS011;43153;50.984;18.204;2023-08-30T11:14:30;4.60;;;1.80;;
57309;SDS011;43153;50.984;18.204;2023-08-30T11:16:58;3.00;;;1.50;;
57309;SDS011;43153;50.984;18.204;2023-08-30T11:19:29;6.90;;;2.30;;
57309;SDS011;43153;50.984;18.204;2023-08-30T11:21:55;3.80;;;2.00;;
57309;SDS011;43153;50.984;18.204;2023-08-30T11:24:33;4.80;;;1.70;;
57309;SDS011;43153;50.984;18.204;2023-08-30T11:27:05;2.60;;;1.30;;
57309;SDS011;43153;50.984;18.204;2023-08-30T11:29:33;3.10;;;1.50;;
57309;SDS011;43153;50.984;18.204;2023-08-30T11:32:03;4.80;;;2.00;;
57309;SDS011;43153;50.984;18.204;2023-08-30T11:37:36;2.70;;;1.40;;
57309;SDS011;43153;50.984;18.204;2023-08-30T11:40:03;4.40;;;1.00;;
57309;SDS011;43153;50.984;18.204;2023-08-30T11:42:31;3.30;;;0.90;;
57309;SDS011;43153;50.984;18.204;2023-08-30T11:45:01;3.60;;;0.70;;
57309;SDS011;43153;50.984;18.204;2023-08-30T11:47:31;2.10;;;0.70;;
57309;SDS011;43153;50.984;18.204;2023-08-30T11:50:06;2.40;;;0.80;;
57309;SDS011;43153;50.984;18.204;2023-08-30T11:52:42;1.60;;;0.60;;
57309;SDS011;43153;50.984;18.204;2023-08-30T11:55:08;4.20;;;1.00;;
57309;SDS011;43153;50.984;18.204;2023-08-30T11:57:37;4.20;;;0.90;;
57309;SDS011;43153;50.984;18.204;2023-08-30T12:00:23;2.70;;;0.70;;
57309;SDS011;43153;50.984;18.204;2023-08-30T12:02:52;1.90;;;0.90;;
57309;SDS011;43153;50.984;18.204;2023-08-30T12:05:19;2.00;;;0.80;;
57309;SDS011;43153;50.984;18.204;2023-08-30T12:07:48;1.30;;;0.60;;
57309;SDS011;43153;50.984;18.204;2023-08-30T12:10:21;2.10;;;0.70;;
57309;SDS011;43153;50.984;18.204;2023-08-30T12:12:53;1.40;;;0.70;;
57309;SDS011;43153;50.984;18.204;2023-08-30T12:15:28;4.60;;;0.80;;
57309;SDS011;43153;50.984;18.204;2023-08-30T12:18:09;1.40;;;0.70;;
57309;SDS011;43153;50.984;18.204;2023-08-30T12:20:55;4.70;;;2.00;;
57309;SDS011;43153;50.984;18.204;2023-08-30T12:23:32;2.00;;;1.10;;
57309;SDS011;43153;50.984;18.204;2023-08-30T12:29:01;2.10;;;0.70;;
57309;SDS011;43153;50.984;18.204;2023-08-30T12:31:28;0.70;;;0.40;;
57309;SDS011;43153;50.984;18.204;2023-08-30T12:33:59;2.80;;;0.80;;
57309;SDS011;43153;50.984;18.204;2023-08-30T12:36:30;5.80;;;0.80;;
57309;SDS011;43153;50.984;18.204;2023-08-30T12:38:57;3.70;;;0.70;;
57309;SDS011;43153;50.984;18.204;2023-08-30T12:41:24;1.80;;;0.70;;
57309;SDS011;43153;50.984;18.204;2023-08-30T12:43:52;2.60;;;0.80;;
57309;SDS011;43153;50.984;18.204;2023-08-30T12:46:25;2.30;;;0.60;;
57309;SDS011;43153;50.984;18.204;2023-08-30T12:48:50;1.40;;;0.70;;
57309;SDS011;43153;50.984;18.204;2023-08-30T12:51:28;1.60;;;0.60;;
57309;SDS011;43153;50.984;18.204;2023-08-30T12:54:00;1.40;;;0.70;;
57309;SDS011;43153;50.984;18.204;2023-08-30T12:56:37;2.30;;;0.80;;
57309;SDS011;43153;50.984;18.204;2023-08-30T12:59:03;3.50;;;1.00;;
57309;SDS011;43153;50.984;18.204;2023-08-30T13:01:32;2.40;;;0.70;;
57309;SDS011;43153;50.984;18.204;2023-08-30T13:03:58;2.30;;;0.60;;
57309;SDS011;43153;50.984;18.204;2023-08-30T13:06:24;2.60;;;0.90;;
57309;SDS011;43153;50.984;18.204;2023-08-30T13:08:50;6.50;;;1.30;;
57309;SDS011;43153;50.984;18.204;2023-08-30T13:11:18;1.80;;;0.70;;
57309;SDS011;43153;50.984;18.204;2023-08-30T13:13:52;2.90;;;0.90;;
57309;SDS011;43153;50.984;18.204;2023-08-30T13:16:18;2.10;;;1.20;;
57309;SDS011;43153;50.984;18.204;2023-08-30T13:18:47;3.40;;;1.30;;
57309;SDS011;43153;50.984;18.204;2023-08-30T13:21:16;3.60;;;1.60;;
57309;SDS011;43153;50.984;18.204;2023-08-30T13:23:42;3.80;;;1.70;;
57309;SDS011;43153;50.984;18.204;2023-08-30T13:26:07;3.00;;;1.70;;
57309;SDS011;43153;50.984;18.204;2023-08-30T13:28:35;3.10;;;1.90;;
57309;SDS011;43153;50.984;18.204;2023-08-30T13:31:01;2.60;;;1.20;;
57309;SDS011;43153;50.984;18.204;2023-08-30T13:33:26;4.10;;;1.50;;
57309;SDS011;43153;50.984;18.204;2023-08-30T13:35:52;2.90;;;1.30;;
57309;SDS011;43153;50.984;18.204;2023-08-30T13:38:19;4.90;;;1.60;;
57309;SDS011;43153;50.984;18.204;2023-08-30T13:40:47;3.30;;;1.30;;
57309;SDS011;43153;50.984;18.204;2023-08-30T13:43:13;2.70;;;1.50;;
57309;SDS011;43153;50.984;18.204;2023-08-30T13:45:40;4.30;;;1.50;;
57309;SDS011;43153;50.984;18.204;2023-08-30T13:48:12;4.20;;;1.60;;
57309;SDS011;43153;50.984;18.204;2023-08-30T13:50:42;4.40;;;1.40;;
57309;SDS011;43153;50.984;18.204;2023-08-30T13:53:13;4.10;;;1.80;;
57309;SDS011;43153;50.984;18.204;2023-08-30T13:55:44;4.20;;;2.00;;
57309;SDS011;43153;50.984;18.204;2023-08-30T13:58:16;4.00;;;2.10;;
57309;SDS011;43153;50.984;18.204;2023-08-30T14:00:46;6.00;;;2.10;;
57309;SDS011;43153;50.984;18.204;2023-08-30T14:03:15;4.70;;;1.80;;
57309;SDS011;43153;50.984;18.204;2023-08-30T14:05:51;4.10;;;2.10;;
57309;SDS011;43153;50.984;18.204;2023-08-30T14:08:34;3.10;;;1.60;;
57309;SDS011;43153;50.984;18.204;2023-08-30T14:11:06;5.50;;;1.90;;
57309;SDS011;43153;50.984;18.204;2023-08-30T14:13:34;3.60;;;1.70;;
57309;SDS011;43153;50.984;18.204;2023-08-30T14:16:00;5.80;;;1.80;;
57309;SDS011;43153;50.984;18.204;2023-08-30T14:18:29;4.20;;;1.70;;
57309;SDS011;43153;50.984;18.204;2023-08-30T14:20:56;6.60;;;2.20;;
57309;SDS011;43153;50.984;18.204;2023-08-30T14:23:26;5.00;;;2.40;;
57309;SDS011;43153;50.984;18.204;2023-08-30T14:25:57;5.10;;;1.80;;
57309;SDS011;43153;50.984;18.204;2023-08-30T14:28:37;3.20;;;1.10;;
57309;SDS011;43153;50.984;18.204;2023-08-30T14:31:08;2.80;;;1.20;;
57309;SDS011;43153;50.984;18.204;2023-08-30T14:33:36;4.30;;;1.40;;
57309;SDS011;43153;50.984;18.204;2023-08-30T14:36:03;3.60;;;1.00;;
57309;SDS011;43153;50.984;18.204;2023-08-30T14:38:36;4.20;;;1.10;;
57309;SDS011;43153;50.984;18.204;2023-08-30T14:41:16;1.90;;;1.00;;
57309;SDS011;43153;50.984;18.204;2023-08-30T14:43:43;3.30;;;1.40;;
57309;SDS011;43153;50.984;18.204;2023-08-30T14:46:17;3.70;;;1.60;;
57309;SDS011;43153;50.984;18.204;2023-08-30T14:48:46;4.10;;;2.00;;
57309;SDS011;43153;50.984;18.204;2023-08-30T14:51:17;3.80;;;1.50;;
57309;SDS011;43153;50.984;18.204;2023-08-30T14:53:45;4.00;;;1.60;;
57309;SDS011;43153;50.984;18.204;2023-08-30T14:56:15;3.20;;;1.40;;
57309;SDS011;43153;50.984;18.204;2023-08-30T14:58:43;4.80;;;1.50;;
57309;SDS011;43153;50.984;18.204;2023-08-30T15:01:16;2.80;;;1.20;;
57309;SDS011;43153;50.984;18.204;2023-08-30T15:03:43;2.90;;;1.10;;
57309;SDS011;43153;50.984;18.204;2023-08-30T15:06:17;5.40;;;1.20;;
57309;SDS011;43153;50.984;18.204;2023-08-30T15:08:43;4.30;;;1.40;;
57309;SDS011;43153;50.984;18.204;2023-08-30T15:11:10;4.30;;;1.50;;
57309;SDS011;43153;50.984;18.204;2023-08-30T15:13:41;2.80;;;1.20;;
57309;SDS011;43153;50.984;18.204;2023-08-30T15:16:07;3.10;;;1.40;;
57309;SDS011;43153;50.984;18.204;2023-08-30T15:18:35;3.60;;;1.20;;
57309;SDS011;43153;50.984;18.204;2023-08-30T15:21:07;2.70;;;0.90;;
57309;SDS011;43153;50.984;18.204;2023-08-30T15:23:37;2.80;;;1.30;;
57309;SDS011;43153;50.984;18.204;2023-08-30T15:26:05;5.00;;;1.50;;
57309;SDS011;43153;50.984;18.204;2023-08-30T15:28:41;3.40;;;1.30;;
57309;SDS011;43153;50.984;18.204;2023-08-30T15:31:11;4.60;;;1.10;;
57309;SDS011;43153;50.984;18.204;2023-08-30T15:33:38;3.70;;;1.50;;
57309;SDS011;43153;50.984;18.204;2023-08-30T15:36:04;2.20;;;1.20;;